Time;durP1;ratioP1;P1;durP2;ratioP2;P2;SDS_P1;SDS_P2;PMS_P1;PMS_P2;Temp;Humidity;BMP_temperature;BMP_pressure;BME280_temperature;BME280_humidity;BME280_pressure;Samples;Min_cycle;Max_cycle;Signal;HPM_P1;HPM_P2
2023/04/05 00:00:11;;;;;;;2.20;2.00;;;17.20;76.90;;;;;;5051345;28;20026;-73
2023/04/05 00:02:39;;;;;;;4.05;2.47;;;17.20;76.90;;;;;;5050916;28;20401;-73
2023/04/05 00:05:06;;;;;;;8.27;2.65;;;17.20;77.00;;;;;;5051134;28;20017;-73
2023/04/05 00:07:33;;;;;;;4.10;2.17;;;17.20;77.00;;;;;;5051176;28;20571;-73
2023/04/05 00:09:59;;;;;;;2.35;2.15;;;17.20;77.00;;;;;;5050944;28;20112;-73
2023/04/05 00:12:25;;;;;;;4.47;2.40;;;17.20;77.00;;;;;;5050906;28;20024;-74
2023/04/05 00:14:51;;;;;;;2.95;2.60;;;17.20;76.90;;;;;;5052134;28;20021;-74
2023/04/05 00:17:16;;;;;;;3.45;2.15;;;17.20;77.10;;;;;;5051889;28;20029;-73
2023/04/05 00:19:43;;;;;;;5.65;2.55;;;17.10;77.00;;;;;;5051137;28;20108;-74
2023/04/05 00:22:09;;;;;;;3.47;2.53;;;17.20;77.20;;;;;;5052296;28;20029;-73
2023/04/05 00:24:37;;;;;;;2.22;2.00;;;17.20;77.20;;;;;;5050757;28;20027;-74
2023/04/05 00:27:04;;;;;;;2.33;2.20;;;17.10;77.20;;;;;;5050690;28;20078;-74
2023/04/05 00:29:29;;;;;;;5.38;2.42;;;17.20;77.20;;;;;;5051178;28;20492;-73
2023/04/05 00:31:55;;;;;;;3.40;1.90;;;17.10;77.10;;;;;;5051607;28;20033;-73
2023/04/05 00:34:21;;;;;;;2.58;2.20;;;17.10;77.20;;;;;;5051751;28;20099;-73
2023/04/05 00:36:46;;;;;;;2.80;2.60;;;17.10;77.20;;;;;;5050530;28;20104;-73
2023/04/05 00:39:12;;;;;;;2.08;1.90;;;17.10;77.20;;;;;;5050695;28;20159;-73
2023/04/05 00:41:39;;;;;;;2.65;2.20;;;17.20;77.20;;;;;;5050812;28;20029;-73
2023/04/05 00:44:05;;;;;;;2.25;2.03;;;17.10;77.10;;;;;;5050554;28;20404;-73
2023/04/05 00:46:33;;;;;;;2.38;2.17;;;17.10;77.20;;;;;;5051853;28;20462;-73
2023/04/05 00:48:59;;;;;;;2.55;2.00;;;17.10;77.20;;;;;;5033992;28;20078;-73
2023/04/05 00:51:25;;;;;;;2.25;2.05;;;17.10;77.30;;;;;;5050824;28;20025;-73
2023/04/05 00:53:51;;;;;;;2.13;1.92;;;17.10;77.20;;;;;;5048140;28;20052;-73
2023/04/05 00:56:17;;;;;;;2.33;2.13;;;17.10;77.20;;;;;;5067453;28;20025;-73
2023/04/05 00:58:42;;;;;;;2.13;1.92;;;17.10;77.20;;;;;;5050228;28;20397;-74
2023/04/05 01:01:18;;;;;;;2.28;2.08;;;17.10;77.30;;;;;;5050335;28;20036;-74
2023/04/05 01:03:52;;;;;;;3.15;2.47;;;17.10;77.40;;;;;;5051579;28;20021;-74
2023/04/05 01:06:45;;;;;;;1.98;1.77;;;17.10;78.30;;;;;;5050615;28;20094;-74
2023/04/05 01:09:22;;;;;;;2.28;1.98;;;17.10;77.30;;;;;;5050454;28;20520;-74
2023/04/05 01:11:47;;;;;;;2.28;2.00;;;17.10;77.30;;;;;;5050426;28;20056;-74
2023/04/05 01:14:13;;;;;;;2.00;1.90;;;17.10;77.30;;;;;;5033758;28;20063;-73
2023/04/05 01:16:39;;;;;;;2.10;1.90;;;17.10;77.30;;;;;;5052643;28;20025;-73
2023/04/05 01:19:04;;;;;;;2.22;2.03;;;17.10;77.40;;;;;;5054157;28;20025;-74
2023/04/05 01:21:33;;;;;;;2.25;2.00;;;17.00;77.30;;;;;;5054251;28;20104;-74
2023/04/05 01:24:19;;;;;;;2.28;2.10;;;17.00;77.30;;;;;;5054950;28;20044;-74
2023/04/05 01:26:51;;;;;;;2.97;1.80;;;17.00;77.30;;;;;;5054107;28;20100;-73
2023/04/05 01:29:26;;;;;;;2.13;1.90;;;17.00;77.40;;;;;;5053965;28;20028;-74
2023/04/05 01:32:27;;;;;;;2.22;2.03;;;17.00;77.30;;;;;;5053695;28;20029;-73
2023/04/05 01:35:17;;;;;;;3.50;1.90;;;17.00;77.30;;;;;;5054455;28;20025;-74
2023/04/05 01:37:43;;;;;;;2.30;1.88;;;17.00;77.30;;;;;;5047333;28;20453;-73
2023/04/05 01:40:09;;;;;;;2.53;2.05;;;17.00;77.30;;;;;;5050185;28;20386;-73
2023/04/05 01:42:35;;;;;;;1.95;1.75;;;17.00;77.40;;;;;;5050288;28;20025;-74
2023/04/05 01:45:00;;;;;;;3.25;1.83;;;17.00;77.50;;;;;;5066711;28;20529;-73
2023/04/05 01:47:26;;;;;;;2.10;1.90;;;17.00;77.50;;;;;;5067069;28;20021;-73
2023/04/05 01:49:52;;;;;;;2.33;2.15;;;17.00;77.50;;;;;;5066806;28;20025;-73
2023/04/05 01:52:17;;;;;;;1.70;1.60;;;17.00;77.50;;;;;;5066823;28;20107;-74
2023/04/05 01:54:43;;;;;;;2.45;2.10;;;17.00;77.50;;;;;;5066808;28;20473;-73
2023/04/05 01:57:09;;;;;;;2.20;1.98;;;17.00;77.40;;;;;;5034482;28;20371;-73
2023/04/05 01:59:35;;;;;;;2.30;2.08;;;17.00;77.40;;;;;;5066711;28;20021;-73
2023/04/05 02:02:00;;;;;;;1.75;1.63;;;17.00;77.50;;;;;;5034483;28;20033;-73
2023/04/05 02:04:26;;;;;;;1.80;1.70;;;17.00;77.30;;;;;;5034427;28;20033;-73
2023/04/05 02:06:51;;;;;;;2.10;1.85;;;17.00;77.50;;;;;;5049714;28;20036;-73
2023/04/05 02:09:17;;;;;;;2.40;1.80;;;17.00;77.60;;;;;;5066474;28;20024;-73
2023/04/05 02:11:43;;;;;;;2.50;1.70;;;17.00;77.50;;;;;;5066532;28;20022;-73
2023/04/05 02:14:09;;;;;;;1.85;1.75;;;17.00;77.50;;;;;;5066229;28;20504;-73
2023/04/05 02:16:35;;;;;;;2.15;1.95;;;17.00;77.50;;;;;;5033159;28;20030;-73
2023/04/05 02:19:01;;;;;;;2.05;1.83;;;17.00;77.60;;;;;;5066242;28;20032;-73
2023/04/05 02:21:26;;;;;;;1.85;1.75;;;17.00;77.50;;;;;;5049736;28;20041;-73
2023/04/05 02:23:52;;;;;;;2.00;1.90;;;17.00;77.60;;;;;;5066119;28;20089;-73
2023/04/05 02:26:18;;;;;;;1.67;1.58;;;17.00;77.60;;;;;;5066191;28;20022;-74
2023/04/05 02:28:44;;;;;;;1.90;1.70;;;17.00;77.60;;;;;;5065475;28;20485;-74
2023/04/05 02:31:13;;;;;;;2.85;1.80;;;16.90;77.70;;;;;;5052447;28;20021;-74
2023/04/05 02:33:39;;;;;;;1.83;1.73;;;17.00;77.60;;;;;;5052897;28;20018;-74
2023/04/05 02:36:05;;;;;;;1.80;1.70;;;16.90;77.60;;;;;;5052522;28;20029;-74
2023/04/05 02:38:35;;;;;;;2.00;1.80;;;16.90;77.70;;;;;;5038273;28;20108;-74
2023/04/05 02:41:00;;;;;;;3.00;2.10;;;16.90;77.70;;;;;;5065669;28;20032;-73
2023/04/05 02:43:26;;;;;;;1.70;1.60;;;16.90;77.70;;;;;;5065679;28;20022;-74
2023/04/05 02:45:52;;;;;;;1.70;1.60;;;16.90;78.70;;;;;;5065683;28;20425;-73
2023/04/05 02:48:17;;;;;;;2.47;1.90;;;16.90;77.70;;;;;;5049055;28;20025;-74
2023/04/05 02:50:47;;;;;;;1.77;1.67;;;16.90;77.70;;;;;;5049321;28;20087;-74
2023/04/05 02:53:13;;;;;;;2.00;1.80;;;16.90;77.70;;;;;;5033333;28;20037;-74
2023/04/05 02:55:40;;;;;;;1.83;1.65;;;16.90;77.70;;;;;;5033723;28;20040;-73
2023/04/05 02:58:06;;;;;;;1.77;1.67;;;16.90;77.70;;;;;;5033297;28;20017;-74
2023/04/05 03:00:32;;;;;;;1.83;1.70;;;16.90;77.60;;;;;;5065522;28;20528;-73
2023/04/05 03:02:58;;;;;;;1.58;1.48;;;16.90;77.70;;;;;;5065159;28;20078;-74
2023/04/05 03:05:24;;;;;;;2.10;1.70;;;16.90;77.70;;;;;;5033328;28;20037;-74
2023/04/05 03:07:50;;;;;;;2.13;1.80;;;16.90;78.80;;;;;;5033348;28;20397;-74
2023/04/05 03:10:21;;;;;;;1.85;1.65;;;16.90;77.80;;;;;;5065017;28;20477;-73
2023/04/05 03:12:47;;;;;;;2.00;1.63;;;16.90;77.80;;;;;;5047793;28;20030;-73
2023/04/05 03:15:13;;;;;;;3.33;1.50;;;16.80;77.80;;;;;;5065254;28;20028;-73
2023/04/05 03:17:38;;;;;;;1.95;1.80;;;16.90;77.80;;;;;;5065361;28;20021;-73
2023/04/05 03:20:08;;;;;;;1.67;1.58;;;16.90;77.80;;;;;;5048367;28;20481;-73
2023/04/05 03:22:35;;;;;;;1.58;1.48;;;16.80;77.80;;;;;;5047872;28;20394;-73
2023/04/05 03:25:00;;;;;;;1.90;1.60;;;16.80;77.70;;;;;;5032642;28;20087;-73
2023/04/05 03:27:27;;;;;;;1.80;1.70;;;16.80;77.80;;;;;;5065117;28;20474;-73
2023/04/05 03:29:53;;;;;;;1.55;1.45;;;16.80;77.70;;;;;;5035249;28;20021;-73
2023/04/05 03:32:19;;;;;;;1.88;1.50;;;16.80;77.70;;;;;;5051608;28;20017;-73
2023/04/05 03:34:45;;;;;;;1.70;1.60;;;16.90;78.00;;;;;;5051581;28;20444;-73
2023/04/05 03:37:10;;;;;;;1.85;1.70;;;16.80;77.80;;;;;;5047947;28;20025;-73
2023/04/05 03:39:36;;;;;;;1.60;1.50;;;16.80;77.90;;;;;;5047892;28;20037;-73
2023/04/05 03:42:02;;;;;;;1.80;1.60;;;16.80;77.80;;;;;;5064739;28;20025;-73
2023/04/05 03:44:28;;;;;;;1.90;1.70;;;16.80;77.80;;;;;;5064574;28;20493;-73
2023/04/05 03:46:54;;;;;;;1.67;1.58;;;16.90;77.80;;;;;;5064707;28;20021;-73
2023/04/05 03:49:20;;;;;;;2.17;1.80;;;16.90;77.90;;;;;;5064389;28;20521;-73
2023/04/05 03:51:46;;;;;;;2.13;1.70;;;16.80;77.70;;;;;;5047993;28;20028;-73
2023/04/05 03:54:12;;;;;;;1.85;1.67;;;16.80;77.90;;;;;;5064246;28;20053;-73
2023/04/05 03:56:37;;;;;;;1.55;1.45;;;16.80;77.80;;;;;;5064578;28;20029;-73
2023/04/05 03:59:03;;;;;;;1.60;1.50;;;16.90;78.00;;;;;;5047736;28;20034;-73
2023/04/05 04:01:29;;;;;;;1.75;1.65;;;16.80;78.00;;;;;;5064681;28;20135;-73
2023/04/05 04:03:55;;;;;;;1.70;1.60;;;16.80;78.00;;;;;;5032525;28;20398;-73
2023/04/05 04:06:20;;;;;;;1.83;1.48;;;16.80;78.00;;;;;;5064380;28;20026;-73
2023/04/05 04:08:46;;;;;;;1.90;1.20;;;16.80;77.90;;;;;;5064203;28;20470;-73
2023/04/05 04:11:12;;;;;;;1.63;1.52;;;16.90;78.10;;;;;;5064245;28;20022;-73
2023/04/05 04:13:37;;;;;;;1.88;1.77;;;16.80;78.10;;;;;;5064642;28;20018;-73
2023/04/05 04:16:03;;;;;;;1.60;1.50;;;16.80;78.10;;;;;;5031068;28;20448;-73
2023/04/05 04:18:29;;;;;;;2.17;1.58;;;16.80;78.00;;;;;;5032252;28;20033;-73
2023/04/05 04:20:55;;;;;;;10.10;1.50;;;16.80;78.00;;;;;;5064603;28;20104;-73
2023/04/05 04:23:21;;;;;;;1.60;1.50;;;16.80;78.10;;;;;;5063658;28;20080;-73
2023/04/05 04:25:53;;;;;;;1.77;1.48;;;16.80;78.10;;;;;;5047361;28;20033;-73
2023/04/05 04:28:19;;;;;;;1.50;1.40;;;16.80;78.20;;;;;;5063559;28;20021;-72
2023/04/05 04:30:45;;;;;;;2.15;1.50;;;16.80;78.00;;;;;;5057056;28;20025;-73
2023/04/05 04:33:11;;;;;;;1.92;1.73;;;16.80;78.20;;;;;;5050723;28;20070;-73
2023/04/05 04:35:39;;;;;;;1.55;1.30;;;16.80;78.10;;;;;;5050693;28;20091;-73
2023/04/05 04:38:06;;;;;;;1.52;1.42;;;16.80;78.20;;;;;;5050418;28;20408;-73
2023/04/05 04:40:40;;;;;;;1.33;1.23;;;16.80;78.00;;;;;;5050811;28;20055;-73
2023/04/05 04:43:08;;;;;;;1.33;1.23;;;16.80;78.20;;;;;;5050591;28;20017;-73
2023/04/05 04:45:36;;;;;;;1.58;1.48;;;16.80;78.10;;;;;;5050957;28;20028;-73
2023/04/05 04:48:03;;;;;;;1.50;1.40;;;16.80;78.00;;;;;;5051998;28;20451;-73
2023/04/05 04:50:30;;;;;;;1.63;1.50;;;16.80;77.90;;;;;;5050968;28;20025;-73
2023/04/05 04:52:56;;;;;;;1.83;1.73;;;16.80;78.10;;;;;;5055669;28;20036;-73
2023/04/05 04:55:25;;;;;;;1.40;1.30;;;16.80;78.20;;;;;;5054417;28;20021;-73
2023/04/05 04:57:53;;;;;;;2.03;1.25;;;16.80;78.10;;;;;;5055792;28;20028;-73
2023/04/05 05:00:20;;;;;;;1.70;1.60;;;16.80;78.10;;;;;;5055802;28;20500;-73
2023/04/05 05:02:46;;;;;;;1.58;1.48;;;16.80;78.10;;;;;;5054363;28;20305;-73
2023/04/05 05:05:12;;;;;;;2.28;1.30;;;16.80;78.20;;;;;;5054270;28;20028;-73
2023/04/05 05:07:40;;;;;;;1.13;1.13;;;16.80;78.50;;;;;;5054308;28;20389;-73
2023/04/05 05:10:06;;;;;;;1.77;1.67;;;16.80;78.00;;;;;;5054376;28;20021;-73
2023/04/05 05:12:32;;;;;;;1.48;1.38;;;16.80;78.00;;;;;;5054185;28;20108;-73
2023/04/05 05:14:57;;;;;;;1.58;1.48;;;16.80;78.10;;;;;;5037567;28;20116;-73
2023/04/05 05:17:23;;;;;;;1.55;1.40;;;16.80;78.20;;;;;;5054140;28;20836;-73
2023/04/05 05:19:50;;;;;;;1.58;1.25;;;16.80;78.30;;;;;;5054217;28;20029;-73
2023/04/05 05:22:15;;;;;;;1.50;1.40;;;16.80;78.20;;;;;;5053941;28;20017;-73
2023/04/05 05:24:42;;;;;;;1.70;1.60;;;16.80;78.20;;;;;;5054131;28;20532;-73
2023/04/05 05:27:07;;;;;;;1.80;1.58;;;16.80;78.20;;;;;;5053970;28;20021;-73
2023/04/05 05:29:33;;;;;;;1.30;1.20;;;16.70;78.20;;;;;;5053917;28;20511;-73
2023/04/05 05:31:59;;;;;;;1.70;1.60;;;16.80;78.20;;;;;;5053506;28;20018;-74
2023/04/05 05:34:24;;;;;;;1.50;1.30;;;16.80;78.20;;;;;;5054036;28;20028;-73
2023/04/05 05:36:53;;;;;;;1.52;1.42;;;16.70;78.30;;;;;;5054235;28;20098;-74
2023/04/05 05:39:19;;;;;;;2.80;1.40;;;16.70;78.30;;;;;;5052284;28;20469;-73
2023/04/05 05:41:45;;;;;;;1.73;1.35;;;16.70;78.30;;;;;;5052240;28;20107;-74
2023/04/05 05:44:10;;;;;;;1.30;1.20;;;16.70;78.40;;;;;;5054070;28;20071;-74
2023/04/05 05:46:36;;;;;;;1.38;1.27;;;16.80;78.50;;;;;;5058035;28;20099;-74
2023/04/05 05:49:02;;;;;;;1.98;1.27;;;16.70;78.40;;;;;;5058065;28;20063;-74
2023/04/05 05:51:27;;;;;;;1.00;1.00;;;16.70;78.40;;;;;;5057408;28;20049;-74
2023/04/05 05:53:53;;;;;;;4.25;1.20;;;16.70;78.40;;;;;;5053183;28;20060;-74
2023/04/05 05:56:18;;;;;;;2.13;1.60;;;16.70;78.40;;;;;;5035102;28;20025;-74
2023/04/05 05:58:45;;;;;;;1.20;1.10;;;16.70;78.50;;;;;;5051893;28;20029;-74
2023/04/05 06:01:10;;;;;;;4.05;1.40;;;16.70;78.50;;;;;;5053035;28;20519;-74
2023/04/05 06:03:36;;;;;;;1.40;1.30;;;16.70;78.50;;;;;;5051801;28;20068;-73
2023/04/05 06:06:04;;;;;;;1.65;1.55;;;16.70;78.50;;;;;;5051535;28;20086;-74
2023/04/05 06:08:30;;;;;;;1.55;1.13;;;16.70;78.50;;;;;;5053519;28;20021;-73
2023/04/05 06:10:56;;;;;;;1.50;1.40;;;16.70;78.50;;;;;;5033335;28;20029;-70
2023/04/05 06:13:22;;;;;;;1.27;1.17;;;16.70;78.20;;;;;;5054693;28;20037;-71
2023/04/05 06:15:47;;;;;;;1.67;1.00;;;16.80;77.70;;;;;;5051489;28;20021;-71
2023/04/05 06:18:13;;;;;;;1.33;1.20;;;16.80;76.80;;;;;;5052912;28;20513;-71
2023/04/05 06:20:39;;;;;;;1.17;1.10;;;16.80;76.40;;;;;;5051113;28;20021;-71
2023/04/05 06:23:11;;;;;;;1.23;1.13;;;16.80;76.00;;;;;;5086861;28;20056;-71
2023/04/05 06:25:36;;;;;;;1.50;1.10;;;16.80;75.80;;;;;;5055326;28;20098;-72
2023/04/05 06:28:03;;;;;;;1.45;1.25;;;16.80;75.50;;;;;;5034530;28;20056;-71
2023/04/05 06:30:29;;;;;;;1.45;1.08;;;16.80;75.40;;;;;;5054935;28;20543;-71
2023/04/05 06:32:54;;;;;;;2.08;1.35;;;16.80;75.30;;;;;;5054665;28;20100;-71
2023/04/05 06:35:21;;;;;;;2.92;1.58;;;16.90;75.20;;;;;;5053628;28;20111;-71
2023/04/05 06:37:47;;;;;;;2.13;1.38;;;16.90;75.20;;;;;;5053214;28;20025;-67
2023/04/05 06:40:13;;;;;;;9.48;2.45;;;16.90;75.10;;;;;;5055521;28;20119;-67
2023/04/05 06:42:38;;;;;;;17.83;2.75;;;16.90;75.70;;;;;;5052706;28;20448;-67
2023/04/05 06:45:04;;;;;;;11.75;2.08;;;17.00;76.50;;;;;;5051688;28;20086;-67
2023/04/05 06:47:37;;;;;;;7.32;2.17;;;17.00;77.00;;;;;;5050038;28;20028;-67
2023/04/05 06:50:03;;;;;;;;;;;17.00;77.10;;;;;;5051733;28;20028;-67
2023/04/05 06:52:29;;;;;;;21.52;2.80;;;17.10;77.00;;;;;;5051362;28;19916;-67
2023/04/05 06:54:55;;;;;;;4.68;1.80;;;17.10;77.00;;;;;;5050433;28;20031;-67
2023/04/05 06:57:21;;;;;;;3.22;1.92;;;17.10;76.80;;;;;;5051680;28;20112;-66
2023/04/05 06:59:47;;;;;;;6.82;2.10;;;17.10;76.60;;;;;;5050401;28;20481;-67
2023/04/05 07:02:12;;;;;;;4.65;1.80;;;17.10;76.40;;;;;;5034022;28;20039;-67
2023/04/05 07:04:38;;;;;;;4.90;1.73;;;17.10;76.20;;;;;;5034191;28;20075;-67
2023/04/05 07:07:05;;;;;;;3.30;1.80;;;17.20;76.20;;;;;;5052027;28;20036;-67
2023/04/05 07:09:34;;;;;;;4.43;1.65;;;17.10;76.00;;;;;;5052115;28;20104;-67
2023/04/05 07:12:00;;;;;;;3.05;1.63;;;17.20;76.00;;;;;;5052109;28;20017;-67
2023/04/05 07:14:28;;;;;;;3.65;1.70;;;17.20;75.80;;;;;;5051082;28;20025;-67
2023/04/05 07:16:53;;;;;;;6.88;1.85;;;17.10;75.70;;;;;;5051787;28;20488;-67
2023/04/05 07:19:19;;;;;;;5.78;1.83;;;17.20;75.60;;;;;;5053015;28;20029;-67
2023/04/05 07:21:45;;;;;;;3.58;1.55;;;17.20;75.50;;;;;;5051731;28;20032;-67
2023/04/05 07:24:10;;;;;;;3.65;1.60;;;17.20;75.40;;;;;;5051655;28;20033;-67
2023/04/05 07:26:36;;;;;;;3.80;1.50;;;17.20;75.40;;;;;;5051636;28;20025;-67
2023/04/05 07:29:03;;;;;;;5.65;1.83;;;17.20;75.30;;;;;;5051767;28;20158;-67
2023/04/05 07:31:30;;;;;;;2.03;1.60;;;17.20;75.30;;;;;;5052301;28;20125;-67
2023/04/05 07:33:57;;;;;;;1.67;1.38;;;17.20;75.20;;;;;;5052871;28;20424;-67
2023/04/05 07:36:22;;;;;;;3.60;1.80;;;17.30;75.10;;;;;;5052785;28;20104;-67
2023/04/05 07:38:48;;;;;;;4.82;1.50;;;17.20;75.00;;;;;;5051536;28;20132;-67
2023/04/05 07:41:16;;;;;;;4.22;1.77;;;17.30;75.10;;;;;;5052717;28;20025;-67
2023/04/05 07:43:41;;;;;;;5.22;1.70;;;17.30;75.00;;;;;;5051339;28;20048;-67
2023/04/05 07:46:07;;;;;;;5.78;1.45;;;17.30;75.00;;;;;;5052426;28;20485;-67
2023/04/05 07:48:32;;;;;;;4.05;1.65;;;17.30;74.90;;;;;;5034747;28;20496;-67
2023/04/05 07:51:08;;;;;;;2.78;1.30;;;17.30;74.80;;;;;;5052634;28;20021;-67
2023/04/05 07:53:34;;;;;;;1.90;1.40;;;17.30;75.80;;;;;;5052233;28;20082;-67
2023/04/05 07:56:07;;;;;;;2.38;1.50;;;17.30;74.70;;;;;;5034884;28;20104;-67
2023/04/05 07:58:33;;;;;;;2.50;1.70;;;17.30;74.70;;;;;;5052126;28;20035;-67
2023/04/05 08:01:02;;;;;;;3.53;1.85;;;17.30;74.70;;;;;;5084582;28;20104;-67
2023/04/05 08:03:28;;;;;;;2.28;1.70;;;17.30;74.60;;;;;;5052487;28;20033;-67
2023/04/05 08:05:54;;;;;;;4.65;1.35;;;17.30;74.50;;;;;;5052150;28;20400;-67
2023/04/05 08:08:20;;;;;;;2.45;1.23;;;17.30;74.50;;;;;;5033326;28;20025;-67
2023/04/05 08:10:46;;;;;;;3.35;1.50;;;17.40;74.40;;;;;;5032311;28;20037;-67
2023/04/05 08:13:11;;;;;;;2.55;1.75;;;17.30;74.40;;;;;;5032349;28;20029;-67
2023/04/05 08:15:37;;;;;;;3.53;1.23;;;17.40;74.30;;;;;;5031984;28;20504;-67
2023/04/05 08:18:03;;;;;;;4.20;1.42;;;17.30;74.20;;;;;;5032286;28;20032;-67
2023/04/05 08:20:28;;;;;;;2.35;1.55;;;17.30;74.10;;;;;;5032186;28;20025;-67
2023/04/05 08:22:54;;;;;;;5.05;1.58;;;17.30;74.10;;;;;;5032331;28;20033;-67
2023/04/05 08:25:20;;;;;;;2.65;1.75;;;17.40;74.20;;;;;;5031144;28;20029;-67
2023/04/05 08:27:45;;;;;;;2.58;1.20;;;17.40;74.20;;;;;;5032140;28;20033;-67
2023/04/05 08:30:12;;;;;;;2.58;1.40;;;17.40;74.10;;;;;;5063942;28;20386;-67
2023/04/05 08:32:37;;;;;;;2.05;1.30;;;17.40;74.00;;;;;;5063824;28;20028;-67
2023/04/05 08:35:03;;;;;;;2.83;1.50;;;17.40;74.00;;;;;;5032187;28;20460;-67
2023/04/05 08:37:35;;;;;;;2.88;1.50;;;17.40;74.00;;;;;;5032095;28;20561;-67
2023/04/05 08:40:02;;;;;;;2.58;1.20;;;17.40;73.90;;;;;;5063244;28;20076;-67
2023/04/05 08:42:36;;;;;;;3.85;1.40;;;17.40;74.90;;;;;;5031807;28;20474;-67
2023/04/05 08:45:03;;;;;;;1.77;1.30;;;17.40;73.80;;;;;;5031851;28;20029;-67
2023/04/05 08:47:28;;;;;;;2.97;1.48;;;17.40;73.70;;;;;;5032178;28;20040;-67
2023/04/05 08:49:54;;;;;;;1.77;1.40;;;17.40;73.70;;;;;;5047290;28;20017;-67
2023/04/05 08:52:20;;;;;;;2.35;1.15;;;17.40;73.60;;;;;;5047104;28;20513;-67
2023/04/05 08:54:45;;;;;;;2.00;1.05;;;17.40;73.60;;;;;;5047297;28;20025;-67
2023/04/05 08:57:11;;;;;;;2.75;1.30;;;17.40;73.60;;;;;;5031986;28;20030;-67
2023/04/05 08:59:38;;;;;;;2.58;1.30;;;17.40;73.50;;;;;;5061547;28;20087;-67
2023/04/05 09:02:08;;;;;;;2.90;1.40;;;17.40;73.50;;;;;;5083820;28;20040;-67
2023/04/05 09:04:37;;;;;;;3.38;1.40;;;17.40;73.40;;;;;;5066731;28;20035;-67
2023/04/05 09:07:02;;;;;;;2.10;1.20;;;17.40;73.40;;;;;;5083088;28;20033;-67
2023/04/05 09:09:30;;;;;;;1.92;1.30;;;17.40;73.40;;;;;;5050601;28;20435;-67
2023/04/05 09:11:56;;;;;;;1.25;1.13;;;17.40;73.30;;;;;;5050350;28;20024;-67
2023/04/05 09:14:22;;;;;;;2.15;1.45;;;17.50;73.40;;;;;;5050235;28;20021;-67
2023/04/05 09:16:47;;;;;;;2.65;1.60;;;17.50;73.30;;;;;;5050234;28;20104;-67
2023/04/05 09:19:13;;;;;;;2.30;1.35;;;17.50;73.20;;;;;;5051678;28;20622;-67
2023/04/05 09:22:00;;;;;;;2.30;1.50;;;17.40;73.20;;;;;;5051732;28;20104;-67
2023/04/05 09:24:35;;;;;;;1.52;1.30;;;17.50;73.20;;;;;;5051529;28;20075;-67
2023/04/05 09:27:30;;;;;;;3.85;1.25;;;17.50;73.20;;;;;;5051454;28;20025;-67
2023/04/05 09:29:56;;;;;;;1.48;1.02;;;17.50;73.20;;;;;;5050956;28;20401;-67
2023/04/05 09:32:26;;;;;;;1.50;1.40;;;17.50;73.10;;;;;;5050370;28;20025;-67
2023/04/05 09:34:52;;;;;;;2.35;0.98;;;17.50;73.00;;;;;;5050320;28;20028;-67
2023/04/05 09:37:21;;;;;;;1.30;1.13;;;17.50;73.00;;;;;;5052100;28;20098;-67
2023/04/05 09:39:48;;;;;;;1.20;1.10;;;17.50;73.00;;;;;;5053629;28;20032;-67
2023/04/05 09:42:15;;;;;;;1.15;0.88;;;17.50;73.00;;;;;;5053732;28;20024;-67
2023/04/05 09:44:53;;;;;;;2.70;1.15;;;17.50;73.00;;;;;;5054858;28;20516;-67
2023/04/05 09:47:20;;;;;;;2.10;1.27;;;17.50;73.00;;;;;;5054851;28;20392;-67
2023/04/05 09:49:45;;;;;;;2.60;1.17;;;17.50;73.00;;;;;;5053548;28;20028;-67
2023/04/05 09:52:21;;;;;;;2.05;1.30;;;17.50;72.80;;;;;;5053375;28;20017;-67
2023/04/05 09:54:46;;;;;;;1.80;1.20;;;17.50;72.90;;;;;;5053398;28;20025;-67
2023/04/05 09:57:12;;;;;;;1.17;1.08;;;17.50;72.80;;;;;;5054582;28;20031;-67
2023/04/05 09:59:41;;;;;;;1.42;1.13;;;17.50;72.80;;;;;;5053223;28;20044;-67
2023/04/05 10:02:06;;;;;;;1.10;1.00;;;17.50;72.80;;;;;;5053367;28;20525;-67
2023/04/05 10:04:40;;;;;;;2.97;1.00;;;17.50;72.80;;;;;;5054421;28;20028;-67
2023/04/05 10:07:10;;;;;;;2.42;1.20;;;17.50;72.70;;;;;;5077452;28;20029;-67
2023/04/05 10:09:36;;;;;;;2.22;1.30;;;17.50;72.70;;;;;;5065467;28;20024;-67
2023/04/05 10:12:01;;;;;;;1.13;1.02;;;17.50;72.70;;;;;;5049387;28;20104;-67
2023/04/05 10:14:27;;;;;;;1.30;1.10;;;17.50;72.70;;;;;;5049829;28;20040;-67
2023/04/05 10:17:00;;;;;;;2.83;1.30;;;17.50;72.70;;;;;;5066582;28;20095;-67
2023/04/05 10:19:45;;;;;;;1.33;0.95;;;17.60;72.60;;;;;;5064865;28;20021;-67
2023/04/05 10:22:15;;;;;;;1.42;1.00;;;17.50;72.60;;;;;;5046935;28;20413;-67
2023/04/05 10:25:05;;;;;;;1.60;1.15;;;17.50;72.60;;;;;;5066458;28;20148;-67
2023/04/05 10:27:34;;;;;;;1.17;1.10;;;17.60;72.60;;;;;;5066014;28;20061;-67
2023/04/05 10:30:07;;;;;;;1.52;1.10;;;17.60;72.60;;;;;;5049028;28;20018;-67
2023/04/05 10:32:56;;;;;;;1.63;1.17;;;17.60;72.60;;;;;;5066159;28;20022;-67
2023/04/05 10:35:52;;;;;;;1.92;1.10;;;17.60;72.60;;;;;;5065881;28;20144;-67
2023/04/05 10:38:25;;;;;;;1.20;0.95;;;17.60;72.50;;;;;;5034154;28;20082;-67
2023/04/05 10:41:04;;;;;;;;;;;17.60;72.50;;;;;;5034145;28;20076;-67
2023/04/05 10:43:30;;;;;;;1.13;0.90;;;17.60;72.50;;;;;;5032556;28;19909;-67
2023/04/05 10:45:55;;;;;;;1.27;1.17;;;17.60;72.50;;;;;;5048993;28;20037;-67
2023/04/05 10:48:35;;;;;;;1.63;1.40;;;17.60;72.50;;;;;;5065165;28;20025;-67
2023/04/05 10:51:02;;;;;;;1.52;1.25;;;17.60;72.40;;;;;;5065732;28;20044;-67
2023/04/05 10:53:28;;;;;;;1.67;1.20;;;17.60;72.40;;;;;;5065427;28;20041;-67
2023/04/05 10:55:54;;;;;;;1.13;1.05;;;17.60;72.40;;;;;;5064986;28;20033;-67
2023/04/05 10:58:20;;;;;;;1.17;0.90;;;17.60;73.40;;;;;;5069640;28;20183;-67
2023/04/05 11:00:46;;;;;;;1.45;1.25;;;17.60;72.30;;;;;;5052185;28;20524;-67
2023/04/05 11:03:41;;;;;;;1.10;1.00;;;17.60;72.40;;;;;;5052272;28;20025;-67
2023/04/05 11:06:29;;;;;;;1.15;1.02;;;17.60;72.30;;;;;;5053219;28;20033;-67
2023/04/05 11:09:17;;;;;;;1.83;1.20;;;17.60;72.20;;;;;;5053132;28;20021;-67
2023/04/05 11:11:44;;;;;;;1.58;0.98;;;17.60;72.20;;;;;;5051961;28;20036;-67
2023/04/05 11:14:22;;;;;;;1.83;1.20;;;17.60;72.20;;;;;;5053404;28;20028;-67
2023/04/05 11:16:52;;;;;;;1.00;0.95;;;17.60;72.20;;;;;;5051846;28;20534;-67
2023/04/05 11:19:17;;;;;;;1.98;1.05;;;17.60;72.10;;;;;;5051926;28;20029;-67
2023/04/05 11:21:43;;;;;;;1.23;1.10;;;17.60;72.10;;;;;;5051743;28;20036;-67
2023/04/05 11:24:16;;;;;;;1.10;0.85;;;17.60;72.10;;;;;;5051812;28;20100;-67
2023/04/05 11:26:42;;;;;;;1.38;1.00;;;17.60;72.10;;;;;;5052835;28;20091;-67
2023/04/05 11:29:08;;;;;;;1.08;1.00;;;17.60;72.10;;;;;;5053002;28;20017;-67
2023/04/05 11:31:33;;;;;;;1.67;1.10;;;17.60;72.10;;;;;;5051699;28;20017;-67
2023/04/05 11:34:08;;;;;;;1.38;1.25;;;17.70;72.10;;;;;;5051623;28;20025;-67
2023/04/05 11:36:40;;;;;;;1.13;0.90;;;17.70;72.10;;;;;;5051717;28;20183;-67
2023/04/05 11:39:21;;;;;;;1.27;1.17;;;17.60;72.00;;;;;;5035118;28;20025;-67
2023/04/05 11:42:00;;;;;;;1.25;1.15;;;17.70;72.00;;;;;;5052601;28;20481;-67
2023/04/05 11:44:25;;;;;;;1.38;1.10;;;17.70;72.00;;;;;;5051450;28;20025;-67
2023/04/05 11:46:54;;;;;;;1.08;0.95;;;17.70;72.00;;;;;;5052523;28;20029;-67
2023/04/05 11:49:23;;;;;;;2.03;1.08;;;17.70;72.00;;;;;;5052609;28;20025;-67
2023/04/05 11:51:52;;;;;;;1.45;1.10;;;17.70;71.90;;;;;;5051401;28;20487;-67
2023/04/05 11:54:33;;;;;;;1.38;1.08;;;17.70;71.90;;;;;;5052086;28;20041;-67
2023/04/05 11:56:59;;;;;;;1.05;0.95;;;17.70;71.80;;;;;;5051181;28;20025;-67
2023/04/05 11:59:33;;;;;;;1.48;1.00;;;17.70;71.80;;;;;;5051020;28;20413;-67
2023/04/05 12:02:04;;;;;;;1.52;1.00;;;17.70;71.80;;;;;;5052122;28;20017;-67
2023/04/05 12:04:30;;;;;;;0.73;0.73;;;17.70;71.80;;;;;;5051266;28;20055;-67
2023/04/05 12:07:14;;;;;;;1.55;1.00;;;17.70;71.90;;;;;;5043533;28;20549;-67
2023/04/05 12:10:00;;;;;;;1.25;1.00;;;17.70;71.80;;;;;;5032505;28;20025;-67
2023/04/05 12:12:25;;;;;;;1.85;1.27;;;17.70;71.80;;;;;;5063978;28;20025;-67
2023/04/05 12:14:51;;;;;;;1.15;1.05;;;17.70;71.70;;;;;;5032354;28;20024;-67
2023/04/05 12:17:16;;;;;;;1.38;1.17;;;17.70;71.80;;;;;;5047612;28;20548;-67
2023/04/05 12:19:42;;;;;;;1.50;1.08;;;17.70;71.70;;;;;;5031060;28;20029;-67
2023/04/05 12:22:08;;;;;;;1.27;1.05;;;17.70;71.70;;;;;;5064046;28;20064;-67
2023/04/05 12:24:34;;;;;;;1.25;0.90;;;17.70;71.70;;;;;;5032234;28;20025;-68
2023/04/05 12:26:59;;;;;;;2.35;1.10;;;17.70;71.70;;;;;;5032088;28;20459;-68
2023/04/05 12:29:25;;;;;;;1.40;1.05;;;17.70;71.70;;;;;;5032268;28;20079;-68
2023/04/05 12:31:51;;;;;;;2.13;1.10;;;17.80;71.70;;;;;;5031993;28;20489;-68
2023/04/05 12:34:22;;;;;;;1.30;0.95;;;17.80;71.70;;;;;;5032215;28;20390;-68
2023/04/05 12:36:48;;;;;;;1.43;1.10;;;17.80;71.70;;;;;;5031960;28;20030;-68
2023/04/05 12:39:15;;;;;;;0.90;0.90;;;17.80;71.70;;;;;;5032059;28;20033;-68
2023/04/05 12:41:40;;;;;;;1.17;1.08;;;17.80;71.60;;;;;;5047482;28;20401;-68
2023/04/05 12:44:15;;;;;;;0.82;0.82;;;17.80;71.70;;;;;;5063980;28;20029;-68
2023/04/05 12:46:47;;;;;;;1.20;1.10;;;17.80;71.70;;;;;;5047218;28;20082;-68
2023/04/05 12:49:17;;;;;;;2.33;1.10;;;17.80;71.70;;;;;;5031945;28;20101;-68
2023/04/05 12:51:43;;;;;;;1.85;0.98;;;17.80;71.60;;;;;;5031765;28;20252;-68